Time;durP1;ratioP1;P1;durP2;ratioP2;P2;SDS_P1;SDS_P2;PMS_P1;PMS_P2;Temp;Humidity;BMP_temperature;BMP_pressure;BME280_temperature;BME280_humidity;BME280_pressure;Samples;Min_cycle;Max_cycle;Signal;HPM_P1;HPM_P2
2022/04/13 00:00:47;;;;;;;21.13;10.17;;;;;;;0.21;69.39;99493.69;2223280;80;20989;-87
2022/04/13 00:03:46;;;;;;;21.57;10.73;;;;;;;0.20;69.57;99494.48;2191143;80;20996;-85
2022/04/13 00:06:44;;;;;;;17.33;10.57;;;;;;;0.18;69.48;99498.64;2192395;80;21316;-87
2022/04/13 00:09:45;;;;;;;38.17;11.57;;;;;;;0.18;69.54;99502.09;2222697;80;20944;-86
2022/04/13 00:12:45;;;;;;;21.87;11.57;;;;;;;0.19;69.54;99493.99;2212638;80;20976;-85
2022/04/13 00:15:46;;;;;;;18.50;10.20;;;;;;;0.14;69.63;99491.14;2212279;81;20944;-86
2022/04/13 00:18:46;;;;;;;25.67;10.83;;;;;;;0.13;69.69;99484.63;2212193;81;20946;-85
2022/04/13 00:21:46;;;;;;;21.20;10.90;;;;;;;0.11;69.83;99486.20;2211612;80;20996;-84
2022/04/13 00:24:47;;;;;;;20.97;11.13;;;;;;;0.10;69.90;99484.43;2211328;81;21324;-85
2022/04/13 00:27:47;;;;;;;20.23;11.53;;;;;;;0.11;69.92;99477.22;2211437;81;20984;-85
2022/04/13 00:30:48;;;;;;;22.00;10.20;;;;;;;0.15;70.00;99475.34;2211481;81;20925;-85
2022/04/13 00:33:48;;;;;;;86.03;15.20;;;;;;;0.18;69.86;99476.81;2211588;81;21304;-86
2022/04/13 00:36:51;;;;;;;22.20;11.20;;;;;;;0.20;70.03;99477.80;2211367;81;20988;-85
2022/04/13 00:39:52;;;;;;;20.73;11.07;;;;;;;0.24;69.89;99479.77;2211594;81;21032;-85
2022/04/13 00:43:01;;;;;;;24.67;10.53;;;;;;;0.24;69.93;99483.61;2211162;81;21308;-88
2022/04/13 00:46:01;;;;;;;35.70;10.70;;;;;;;0.29;69.81;99484.78;2188678;81;20948;-85
2022/04/13 00:49:01;;;;;;;20.30;10.77;;;;;;;0.27;69.60;99479.56;2211486;81;20984;-87
2022/04/13 00:52:11;;;;;;;18.07;10.30;;;;;;;0.22;69.77;99476.21;2211034;80;21359;-85
2022/04/13 00:55:12;;;;;;;15.27;9.20;;;;;;;0.22;70.16;99477.50;2215454;80;21000;-85
2022/04/13 00:58:13;;;;;;;19.30;10.97;;;;;;;0.23;69.93;99471.56;2211863;81;20956;-85
2022/04/13 01:01:18;;;;;;;21.80;10.80;;;;;;;0.18;69.97;99472.96;2189509;81;21019;-85
2022/04/13 01:04:18;;;;;;;27.03;11.43;;;;;;;0.19;69.87;99469.60;2211885;80;21389;-86
2022/04/13 01:07:22;;;;;;;66.20;13.47;;;;;;;0.22;70.04;99479.66;2211604;81;21393;-85
2022/04/13 01:10:22;;;;;;;22.50;11.07;;;;;;;0.27;70.05;99477.38;2212283;80;20985;-85
2022/04/13 01:13:23;;;;;;;22.30;10.43;;;;;;;0.34;70.07;99474.41;2222243;80;20976;-85
2022/04/13 01:16:23;;;;;;;15.50;9.90;;;;;;;0.38;70.00;99479.33;2222201;80;20987;-85
2022/04/13 01:19:24;;;;;;;16.70;9.67;;;;;;;0.38;69.86;99475.48;2222216;80;20944;-86
2022/04/13 01:22:25;;;;;;;22.57;10.57;;;;;;;0.37;69.74;99474.59;2222143;80;20975;-85
2022/04/13 01:25:28;;;;;;;18.67;11.03;;;;;;;0.34;69.93;99473.12;2222315;80;21347;-86
2022/04/13 01:28:28;;;;;;;16.60;11.10;;;;;;;0.34;70.00;99472.23;2222107;80;20951;-87
2022/04/13 01:31:30;;;;;;;18.77;10.17;;;;;;;0.37;69.99;99468.17;2192132;80;21355;-86
2022/04/13 01:34:33;;;;;;;23.50;12.20;;;;;;;0.38;69.91;99467.77;2222124;80;20995;-86
2022/04/13 01:37:34;;;;;;;23.37;11.30;;;;;;;0.38;70.18;99467.77;2191725;80;20975;-86
2022/04/13 01:40:40;;;;;;;22.03;10.97;;;;;;;0.43;69.84;99477.53;2222603;80;21008;-86
2022/04/13 01:43:43;;;;;;;17.93;9.90;;;;;;;0.46;69.85;99479.41;2222242;80;20992;-87
2022/04/13 01:46:45;;;;;;;18.43;11.40;;;;;;;0.41;69.58;99479.52;2222349;80;20971;-86
2022/04/13 01:49:50;;;;;;;22.83;10.10;;;;;;;0.32;69.87;99479.84;2191522;80;21347;-85
2022/04/13 01:52:54;;;;;;;17.67;10.23;;;;;;;0.27;69.82;99477.38;2178266;80;20980;-86
2022/04/13 01:55:55;;;;;;;20.00;10.43;;;;;;;0.19;69.71;99479.88;2222614;80;20948;-86
2022/04/13 01:58:55;;;;;;;19.40;10.83;;;;;;;0.10;69.92;99487.00;2222092;80;20948;-85
2022/04/13 02:01:56;;;;;;;19.80;10.63;;;;;;;0.15;70.63;99494.20;2222110;80;20980;-86
2022/04/13 02:04:59;;;;;;;20.13;10.97;;;;;;;0.17;69.86;99487.88;2191561;80;20999;-87
2022/04/13 02:08:01;;;;;;;78.47;14.77;;;;;;;0.09;69.91;99490.36;2187376;80;21367;-84
2022/04/13 02:11:01;;;;;;;45.23;12.47;;;;;;;0.03;70.16;99498.95;2219659;80;21004;-85
2022/04/13 02:14:01;;;;;;;19.67;10.43;;;;;;;0.02;70.40;99498.06;2211543;81;20976;-86
2022/04/13 02:17:02;;;;;;;18.77;10.57;;;;;;;-0.01;70.24;99500.41;2211552;81;20932;-85
2022/04/13 02:20:04;;;;;;;27.70;11.93;;;;;;;-0.11;70.28;99497.66;2211498;81;21104;-87
2022/04/13 02:26:33;;;;;;;32.27;11.77;;;;;;;-0.13;70.65;99493.21;2140814;83;20979;-84
2022/04/13 02:29:18;;;;;;;37.93;12.95;;;;;;;-0.14;70.79;99501.30;2114629;83;21019;-85
2022/04/13 02:32:18;;;;;;;31.07;11.33;;;;;;;-0.17;70.84;99497.66;2141315;83;20987;-85
2022/04/13 02:35:18;;;;;;;22.03;10.80;;;;;;;-0.18;70.98;99500.61;2141261;83;21466;-86
2022/04/13 02:38:19;;;;;;;19.43;11.00;;;;;;;-0.17;70.98;99504.07;2140879;83;21365;-84
2022/04/13 02:41:19;;;;;;;21.77;11.63;;;;;;;-0.20;70.91;99506.05;2141226;83;21027;-85
2022/04/13 02:44:20;;;;;;;182.57;21.83;;;;;;;-0.25;71.16;99503.58;2141224;82;21403;-83
2022/04/13 02:47:20;;;;;;;17.73;10.50;;;;;;;-0.08;71.23;99500.41;2141183;83;21068;-86
2022/04/13 02:50:21;;;;;;;24.93;12.73;;;;;;;-0.08;71.23;99500.41;2141046;83;20975;-84
2022/04/13 02:53:22;;;;;;;53.27;11.83;;;;;;;-0.15;71.19;99499.53;2141040;83;21030;-84
2022/04/13 02:56:21;;;;;;;20.97;10.60;;;;;;;-0.24;71.23;99498.94;2140900;83;21055;-84
2022/04/13 02:59:22;;;;;;;22.07;10.60;;;;;;;-0.32;71.60;99504.86;2141262;83;20972;-86
2022/04/13 03:02:22;;;;;;;269.37;28.70;;;;;;;-0.37;71.78;99498.55;2141191;83;20967;-84
2022/04/13 03:05:22;;;;;;;27.80;12.43;;;;;;;-0.37;71.94;99497.66;2141351;83;21015;-84
2022/04/13 03:08:23;;;;;;;20.80;10.60;;;;;;;-0.38;71.96;99495.88;2141119;83;21336;-86
2022/04/13 03:11:24;;;;;;;20.37;11.33;;;;;;;-0.38;71.99;99497.16;2141073;83;21012;-83
2022/04/13 03:14:24;;;;;;;19.80;9.97;;;;;;;-0.45;71.91;99499.72;2140803;83;21073;-85
2022/04/13 03:17:24;;;;;;;22.00;11.27;;;;;;;-0.47;72.11;99492.33;2141102;83;21469;-86
2022/04/13 03:20:25;;;;;;;17.00;10.03;;;;;;;-0.44;72.43;99497.66;2141077;83;20995;-85
2022/04/13 03:23:25;;;;;;;19.20;10.73;;;;;;;-0.38;72.37;99500.61;2205555;80;20988;-85
2022/04/13 03:26:26;;;;;;;259.27;23.70;;;;;;;-0.42;72.16;99504.16;2225177;80;20988;-85
2022/04/13 03:29:26;;;;;;;19.50;10.00;;;;;;;-0.47;72.00;99506.83;2225087;80;20924;-85
2022/04/13 03:32:26;;;;;;;19.80;12.03;;;;;;;-0.51;72.05;99508.69;2224697;80;20995;-84
2022/04/13 03:35:27;;;;;;;18.67;10.83;;;;;;;-0.54;72.32;99495.67;2224835;80;21320;-87
2022/04/13 03:38:27;;;;;;;24.87;11.03;;;;;;;-0.52;72.55;99500.50;2224424;80;20960;-86
2022/04/13 03:41:27;;;;;;;24.40;11.00;;;;;;;-0.51;72.69;99495.88;2225126;80;20990;-82
2022/04/13 03:44:28;;;;;;;17.87;11.10;;;;;;;-0.55;72.63;99490.94;2225116;80;21007;-81
2022/04/13 03:47:28;;;;;;;23.20;11.63;;;;;;;-0.54;72.60;99492.71;2225287;80;21015;-80
2022/04/13 03:50:29;;;;;;;26.83;11.47;;;;;;;-0.55;72.68;99500.30;2223856;80;20955;-82
2022/04/13 03:53:29;;;;;;;20.47;11.63;;;;;;;-0.52;72.83;99503.07;2223661;80;21378;-81
2022/04/13 03:56:30;;;;;;;17.27;10.43;;;;;;;-0.52;72.68;99512.05;2223879;80;20959;-82
2022/04/13 03:59:30;;;;;;;33.10;10.83;;;;;;;-0.53;72.54;99512.83;2224457;80;20991;-81
2022/04/13 04:02:30;;;;;;;17.40;10.60;;;;;;;-0.55;72.61;99518.25;2224341;80;21355;-81
2022/04/13 04:05:31;;;;;;;18.23;10.40;;;;;;;-0.51;72.68;99524.08;2224157;80;20908;-82
2022/04/13 04:08:32;;;;;;;19.43;11.13;;;;;;;-0.50;72.53;99523.30;2224096;80;20916;-82
2022/04/13 04:11:32;;;;;;;19.60;11.13;;;;;;;-0.48;72.43;99526.84;2223239;80;21019;-80
2022/04/13 04:14:32;;;;;;;17.87;10.03;;;;;;;-0.44;72.54;99521.13;2221098;80;21452;-80
2022/04/13 04:17:32;;;;;;;283.63;24.07;;;;;;;-0.42;72.49;99516.59;2221530;80;20931;-82
2022/04/13 04:20:33;;;;;;;47.80;12.47;;;;;;;-0.36;72.49;99525.97;2221293;80;21019;-81
2022/04/13 04:23:33;;;;;;;21.73;11.50;;;;;;;-0.29;72.21;99528.94;2220729;80;20979;-80
2022/04/13 04:26:33;;;;;;;30.67;11.27;;;;;;;-0.24;72.26;99531.41;2220544;80;21423;-81
2022/04/13 04:29:37;;;;;;;20.27;11.60;;;;;;;-0.19;72.18;99530.91;2221093;80;20900;-80
2022/04/13 04:32:37;;;;;;;17.20;11.07;;;;;;;-0.12;72.34;99537.33;2219972;80;21307;-80
2022/04/13 04:35:39;;;;;;;18.63;12.10;;;;;;;0.01;72.41;99542.89;2220357;80;20936;-81
2022/04/13 04:38:38;;;;;;;16.10;10.47;;;;;;;0.13;72.51;99548.80;2221186;80;20968;-80
2022/04/13 04:41:42;;;;;;;21.27;11.40;;;;;;;0.25;72.31;99541.88;2220327;80;20960;-81
2022/04/13 04:44:39;;;;;;;32.83;12.10;;;;;;;0.36;72.32;99535.73;2220360;80;21038;-81
2022/04/13 04:47:39;;;;;;;19.63;10.80;;;;;;;0.48;72.22;99540.75;2221493;80;20991;-81
2022/04/13 04:50:40;;;;;;;21.47;10.23;;;;;;;0.66;72.36;99542.28;2221281;80;20933;-81
2022/04/13 04:53:40;;;;;;;20.50;11.43;;;;;;;0.83;71.98;99535.20;2220906;80;20952;-81
2022/04/13 04:56:41;;;;;;;31.27;12.03;;;;;;;1.02;71.83;99541.98;2221494;80;20984;-81
2022/04/13 04:59:41;;;;;;;37.87;12.20;;;;;;;1.23;71.77;99541.98;2220684;80;20992;-81
2022/04/13 05:02:41;;;;;;;97.27;45.20;;;;;;;1.46;71.48;99538.19;2219741;80;20998;-80
2022/04/13 05:05:42;;;;;;;25.33;12.67;;;;;;;1.68;71.19;99539.03;2220322;80;21015;-80
2022/04/13 05:08:42;;;;;;;34.50;13.70;;;;;;;1.88;71.31;99539.80;2220005;80;21815;-82
2022/04/13 05:11:43;;;;;;;19.40;11.23;;;;;;;2.23;70.66;99548.62;2220037;80;20992;-82
2022/04/13 05:14:43;;;;;;;26.60;12.63;;;;;;;2.51;70.36;99553.60;2221233;80;21028;-80
2022/04/13 05:17:43;;;;;;;19.87;11.43;;;;;;;2.71;69.85;99545.69;2220961;80;21382;-83
2022/04/13 05:20:44;;;;;;;20.00;12.83;;;;;;;2.92;69.31;99551.98;2220165;80;20968;-82
2022/04/13 05:23:44;;;;;;;22.57;11.40;;;;;;;3.28;69.37;99556.01;2219444;80;20960;-82
2022/04/13 05:26:45;;;;;;;17.47;11.13;;;;;;;3.71;67.88;99553.54;2219775;80;21300;-80
2022/04/13 05:32:47;;;;;;;17.33;11.13;;;;;;;4.49;67.08;99543.13;2136869;83;20924;-80
2022/04/13 05:35:51;;;;;;;17.27;10.80;;;;;;;4.85;66.02;99538.77;2136437;83;21007;-80
2022/04/13 05:38:50;;;;;;;28.20;11.60;;;;;;;5.17;63.48;99544.49;2112328;83;20952;-80
2022/04/13 05:41:51;;;;;;;36.67;11.53;;;;;;;5.51;63.52;99542.99;2136985;83;21043;-79
2022/04/13 05:44:51;;;;;;;26.80;11.53;;;;;;;5.80;62.18;99538.63;2136611;83;21656;-79
2022/04/13 05:47:51;;;;;;;17.33;10.73;;;;;;;6.14;61.49;99542.25;2136404;83;20960;-80
2022/04/13 05:50:52;;;;;;;21.57;10.63;;;;;;;6.47;60.48;99541.82;2136411;83;21011;-80
2022/04/13 05:53:52;;;;;;;95.60;14.80;;;;;;;6.73;59.76;99537.64;2135767;83;20948;-80
2022/04/13 05:56:53;;;;;;;33.50;9.87;;;;;;;6.96;58.62;99539.00;2136069;83;21011;-81
2022/04/13 05:59:53;;;;;;;20.20;9.43;;;;;;;7.25;57.82;99540.47;2135674;83;20967;-80
2022/04/13 06:02:54;;;;;;;14.23;9.93;;;;;;;7.50;55.11;99535.73;2135410;83;21007;-80
2022/04/13 06:05:54;;;;;;;16.13;9.60;;;;;;;7.75;55.66;99540.94;2136371;83;21344;-81
2022/04/13 06:08:54;;;;;;;16.47;9.93;;;;;;;7.97;54.13;99530.88;2136518;83;21023;-80
2022/04/13 06:11:55;;;;;;;13.77;10.13;;;;;;;8.18;54.31;99534.17;2136855;83;20987;-80
2022/04/13 06:14:55;;;;;;;17.27;9.90;;;;;;;8.41;53.15;99535.35;2139328;83;21117;-82
2022/04/13 06:17:55;;;;;;;44.50;11.37;;;;;;;8.58;51.88;99540.23;2140491;83;20983;-81
2022/04/13 06:20:56;;;;;;;21.90;9.23;;;;;;;8.80;52.69;99539.20;2139420;83;21455;-80
2022/04/13 06:23:56;;;;;;;93.23;12.47;;;;;;;9.04;51.38;99540.76;2139259;83;21070;-82
2022/04/13 06:26:57;;;;;;;17.23;9.33;;;;;;;9.19;49.91;99545.10;2139227;83;20951;-81
2022/04/13 06:29:57;;;;;;;25.20;10.50;;;;;;;9.30;49.44;99546.29;2198551;80;21335;-80
2022/04/13 06:32:57;;;;;;;13.83;8.63;;;;;;;9.43;48.74;99551.00;2222240;80;20989;-82
2022/04/13 06:35:58;;;;;;;39.10;11.03;;;;;;;9.58;49.52;99556.66;2222343;80;20971;-81
2022/04/13 06:38:58;;;;;;;16.40;9.33;;;;;;;9.79;48.81;99565.89;2223016;80;20980;-81
2022/04/13 06:41:58;;;;;;;11.67;8.67;;;;;;;9.94;48.36;99562.38;2222656;80;21331;-83
2022/04/13 06:45:04;;;;;;;14.67;9.70;;;;;;;10.13;48.07;99568.94;2222136;80;20976;-81
2022/04/13 06:48:04;;;;;;;17.20;11.90;;;;;;;10.30;45.92;99564.17;2206507;80;21409;-81
2022/04/13 06:51:04;;;;;;;13.23;8.67;;;;;;;10.41;45.77;99568.84;2222653;80;20921;-81
2022/04/13 06:54:05;;;;;;;21.13;9.90;;;;;;;10.49;44.66;99563.80;2222846;80;21401;-82
2022/04/13 06:57:05;;;;;;;27.73;10.10;;;;;;;10.55;44.71;99566.55;2222163;80;21375;-80
2022/04/13 07:00:06;;;;;;;16.87;8.30;;;;;;;10.62;44.11;99565.84;2222506;80;20943;-81
2022/04/13 07:03:06;;;;;;;25.33;9.10;;;;;;;10.68;44.09;99569.02;2223226;80;21050;-81
2022/04/13 07:06:06;;;;;;;36.00;9.30;;;;;;;10.77;43.63;99571.42;2223619;80;21320;-81
2022/04/13 07:09:07;;;;;;;12.20;8.17;;;;;;;11.14;44.11;99570.91;2222266;80;20916;-82
2022/04/13 07:12:07;;;;;;;15.68;8.80;;;;;;;11.48;42.64;99572.08;2220969;80;20940;-81
2022/04/13 07:15:08;;;;;;;11.68;8.40;;;;;;;11.55;42.81;99570.89;2219627;80;20955;-82
2022/04/13 07:18:09;;;;;;;11.68;8.30;;;;;;;11.66;42.75;99574.17;2220499;80;20897;-82
2022/04/13 07:21:09;;;;;;;76.82;11.57;;;;;;;11.63;40.43;99568.00;2220296;80;21422;-82
2022/04/13 07:24:10;;;;;;;21.80;8.80;;;;;;;11.71;41.42;99574.25;2219855;80;21622;-80
2022/04/13 07:27:09;;;;;;;25.27;8.30;;;;;;;11.86;41.09;99574.58;2219745;80;21008;-83
2022/04/13 07:30:10;;;;;;;10.95;7.87;;;;;;;11.94;39.91;99567.74;2219580;80;20956;-82
2022/04/13 07:33:10;;;;;;;21.48;8.80;;;;;;;11.88;41.01;99576.79;2219112;80;20980;-83
2022/04/13 07:36:13;;;;;;;19.95;8.88;;;;;;;11.95;40.55;99582.59;2218757;80;20968;-80
2022/04/13 07:39:11;;;;;;;10.03;7.58;;;;;;;12.10;41.13;99585.47;2219601;80;21280;-82
2022/04/13 07:42:11;;;;;;;65.90;11.33;;;;;;;12.29;38.85;99584.52;2219936;80;20920;-81
2022/04/13 07:45:15;;;;;;;13.48;7.65;;;;;;;12.29;40.73;99585.82;2219304;80;21077;-82
2022/04/13 07:48:15;;;;;;;10.15;6.17;;;;;;;12.49;40.85;99589.64;2219777;80;20936;-83
2022/04/13 07:51:16;;;;;;;9.45;5.92;;;;;;;12.68;39.48;99591.69;2219967;80;20912;-81
2022/04/13 07:54:16;;;;;;;10.88;5.90;;;;;;;12.83;39.10;99588.84;2220012;80;21027;-80
2022/04/13 07:57:16;;;;;;;19.05;14.05;;;;;;;12.99;38.65;99587.77;2220369;80;20971;-82
2022/04/13 08:00:17;;;;;;;18.10;6.53;;;;;;;13.17;38.57;99590.26;2220474;80;21447;-81
2022/04/13 08:03:21;;;;;;;12.55;6.53;;;;;;;13.29;36.95;99583.44;2219792;80;20999;-82
2022/04/13 08:06:19;;;;;;;31.65;7.00;;;;;;;13.28;36.12;99589.54;2192981;80;21433;-82
2022/04/13 08:09:20;;;;;;;8.48;5.75;;;;;;;13.32;37.40;99590.03;2220241;80;20896;-82
2022/04/13 08:12:20;;;;;;;9.33;6.45;;;;;;;13.50;36.68;99586.75;2219312;80;21008;-82
2022/04/13 08:15:21;;;;;;;171.13;16.48;;;;;;;13.52;35.83;99588.95;2219606;80;21454;-83
2022/04/13 08:18:21;;;;;;;9.20;5.40;;;;;;;13.54;35.59;99588.98;2220193;80;20952;-81
2022/04/13 08:21:22;;;;;;;7.12;5.90;;;;;;;13.54;35.10;99591.59;2219320;80;20979;-83
2022/04/13 08:24:22;;;;;;;9.43;5.97;;;;;;;13.56;34.80;99591.19;2219289;80;20999;-82
2022/04/13 08:27:22;;;;;;;7.00;5.47;;;;;;;13.47;34.95;99585.83;2220201;80;21019;-84
2022/04/13 08:30:25;;;;;;;6.78;4.53;;;;;;;13.49;35.52;99593.29;2220122;80;20992;-82
2022/04/13 08:33:23;;;;;;;8.55;5.33;;;;;;;13.56;34.35;99594.69;2219518;80;20928;-82
2022/04/13 08:36:24;;;;;;;6.47;4.87;;;;;;;13.68;35.48;99590.89;2219478;80;20943;-82
2022/04/13 08:39:25;;;;;;;13.72;10.98;;;;;;;13.88;35.32;99581.08;2219751;80;21410;-82
2022/04/13 08:42:25;;;;;;;25.68;6.72;;;;;;;14.06;34.92;99588.25;2219107;80;20973;-83
2022/04/13 08:45:25;;;;;;;35.80;7.90;;;;;;;14.09;35.32;99588.28;2220244;80;21050;-83
2022/04/13 08:51:48;;;;;;;9.20;5.08;;;;;;;14.39;34.48;99581.98;2118043;84;21408;-83
2022/04/13 08:54:49;;;;;;;117.37;15.15;;;;;;;14.54;34.58;99578.20;2118461;84;21004;-82
2022/04/13 08:57:49;;;;;;;15.45;6.45;;;;;;;14.68;33.90;99575.67;2117890;84;20938;-80
2022/04/13 09:00:50;;;;;;;16.07;5.87;;;;;;;14.74;34.39;99569.58;2118147;84;21051;-81
2022/04/13 09:03:50;;;;;;;6.85;5.75;;;;;;;14.86;34.05;99567.94;2117913;84;21052;-81
2022/04/13 09:06:51;;;;;;;9.70;5.40;;;;;;;14.85;33.72;99566.62;2118030;84;21572;-83
2022/04/13 09:09:51;;;;;;;15.10;5.42;;;;;;;14.74;33.34;99556.03;2118684;84;20960;-82
2022/04/13 09:12:51;;;;;;;8.58;5.35;;;;;;;14.84;34.47;99562.23;2117449;84;21046;-81
2022/04/13 09:15:52;;;;;;;17.48;5.30;;;;;;;14.89;34.08;99565.77;2115461;84;21018;-81
2022/04/13 09:18:52;;;;;;;18.62;5.25;;;;;;;14.92;34.00;99559.21;2115579;84;21024;-82
2022/04/13 09:21:53;;;;;;;4.72;4.00;;;;;;;15.08;33.82;99557.11;2115809;84;21050;-82
2022/04/13 09:24:57;;;;;;;11.65;5.00;;;;;;;15.25;33.09;99559.37;2116256;84;21332;-80
2022/04/13 09:27:55;;;;;;;5.70;4.55;;;;;;;15.37;32.44;99555.92;2126707;80;21312;-83
2022/04/13 09:30:56;;;;;;;9.68;6.05;;;;;;;15.45;33.17;99553.31;2216695;80;20928;-83
2022/04/13 09:33:56;;;;;;;7.08;4.80;;;;;;;15.39;31.79;99558.55;2216107;80;21000;-81
2022/04/13 09:36:56;;;;;;;6.37;4.87;;;;;;;15.36;32.86;99546.27;2215205;80;20960;-79
2022/04/13 09:39:57;;;;;;;443.90;31.57;;;;;;;15.48;32.26;99548.95;2214545;80;21004;-82
2022/04/13 09:43:00;;;;;;;185.65;17.55;;;;;;;15.57;32.41;99546.78;2214981;80;20991;-81
2022/04/13 09:46:00;;;;;;;10.30;5.10;;;;;;;15.73;32.40;99546.45;2215909;80;21051;-83
2022/04/13 09:49:01;;;;;;;7.00;4.75;;;;;;;15.79;32.03;99547.34;2215924;80;21015;-83
2022/04/13 09:52:01;;;;;;;8.05;5.05;;;;;;;15.79;32.45;99546.02;2216247;80;20940;-83
2022/04/13 09:55:01;;;;;;;29.27;5.75;;;;;;;15.82;30.52;99551.29;2216141;80;20901;-82
2022/04/13 09:58:02;;;;;;;7.87;5.03;;;;;;;15.62;31.23;99541.16;2215119;80;20972;-83
2022/04/13 10:04:29;;;;;;;8.30;5.05;;;;;;;15.55;30.28;99547.21;2160015;82;20992;-82
2022/04/13 10:07:32;;;;;;;10.40;5.03;;;;;;;15.50;31.72;99539.73;2161210;82;21000;-83
2022/04/13 10:10:33;;;;;;;7.33;4.85;;;;;;;15.52;31.33;99534.05;2161751;82;20964;-83
2022/04/13 10:13:51;;;;;;;6.37;4.97;;;;;;;15.68;31.22;99535.91;2162835;82;21012;-82
2022/04/13 10:16:52;;;;;;;9.38;4.78;;;;;;;15.85;30.34;99531.99;2163781;82;21000;-83
2022/04/13 10:19:53;;;;;;;123.95;11.65;;;;;;;15.88;30.94;99534.19;2164279;82;21028;-83
2022/04/13 10:22:52;;;;;;;7.70;4.92;;;;;;;15.97;31.15;99527.17;2164703;82;20964;-82
2022/04/13 10:25:53;;;;;;;28.62;6.28;;;;;;;16.10;31.18;99528.95;2164026;82;21392;-83
2022/04/13 10:28:53;;;;;;;6.42;4.72;;;;;;;16.18;29.26;99533.33;2164113;82;21023;-84
2022/04/13 10:31:54;;;;;;;10.30;5.40;;;;;;;16.07;29.08;99532.45;2165360;82;20924;-83
2022/04/13 10:34:59;;;;;;;7.50;4.90;;;;;;;15.98;29.91;99524.98;2164692;82;21660;-82
2022/04/13 10:37:57;;;;;;;9.97;4.70;;;;;;;15.98;30.53;99537.71;2164800;82;20948;-82
2022/04/13 10:40:58;;;;;;;8.18;4.95;;;;;;;16.08;30.11;99535.97;2190935;80;21079;-84
2022/04/13 10:43:58;;;;;;;17.12;6.30;;;;;;;16.26;29.10;99537.28;2219330;80;20972;-84
2022/04/13 10:46:58;;;;;;;8.98;5.37;;;;;;;16.18;29.29;99532.02;2218827;80;21389;-82
2022/04/13 10:49:59;;;;;;;7.45;4.83;;;;;;;16.31;30.12;99522.36;2218677;80;20935;-82
2022/04/13 10:53:00;;;;;;;11.35;5.45;;;;;;;16.47;29.03;99522.81;2218428;80;20904;-84
2022/04/13 10:56:00;;;;;;;13.25;5.20;;;;;;;16.46;29.17;99513.13;2218872;80;21336;-80
2022/04/13 10:59:00;;;;;;;13.30;5.62;;;;;;;16.53;29.36;99511.39;2218400;80;20964;-81
2022/04/13 11:02:02;;;;;;;6.65;4.45;;;;;;;16.58;28.96;99509.62;2218126;80;21352;-83
2022/04/13 11:05:03;;;;;;;6.35;4.50;;;;;;;16.65;28.74;99510.48;2218623;80;20940;-82
2022/04/13 11:08:03;;;;;;;7.75;4.80;;;;;;;16.61;28.37;99512.69;2201174;80;20920;-83
2022/04/13 11:11:03;;;;;;;12.37;4.65;;;;;;;16.69;29.18;99507.00;2219615;80;21380;-84
2022/04/13 11:14:04;;;;;;;18.42;5.05;;;;;;;16.67;27.60;99499.53;2219427;80;20952;-82
2022/04/13 11:17:07;;;;;;;11.68;4.15;;;;;;;16.60;27.59;99497.76;2189598;80;21003;-84
2022/04/13 11:20:08;;;;;;;6.05;4.55;;;;;;;16.64;26.05;99506.98;2219657;80;21598;-82
2022/04/13 11:23:11;;;;;;;8.58;4.87;;;;;;;16.64;26.75;99507.41;2219449;80;21422;-84
2022/04/13 11:26:09;;;;;;;10.40;5.00;;;;;;;16.91;27.74;99503.42;2219642;80;20943;-81
2022/04/13 11:29:09;;;;;;;28.35;6.37;;;;;;;17.24;27.65;99482.63;2219350;80;20928;-83
2022/04/13 11:32:10;;;;;;;7.10;4.80;;;;;;;17.46;26.93;99472.86;2219084;80;20932;-82
2022/04/13 11:35:10;;;;;;;12.95;4.87;;;;;;;17.57;27.39;99465.75;2218865;80;21324;-82
2022/04/13 11:38:10;;;;;;;13.78;5.53;;;;;;;17.78;26.52;99466.08;2219034;80;20919;-82
2022/04/13 11:41:11;;;;;;;12.53;4.78;;;;;;;17.93;26.25;99482.25;2218738;80;20967;-81
2022/04/13 11:44:11;;;;;;;10.32;5.03;;;;;;;17.99;25.26;99469.00;2218973;80;21004;-83
2022/04/13 11:47:11;;;;;;;19.37;5.22;;;;;;;18.07;25.54;99472.45;2219546;80;21031;-81
2022/04/13 11:50:18;;;;;;;47.13;6.75;;;;;;;18.04;25.30;99464.11;2219214;80;21680;-82
2022/04/13 11:53:20;;;;;;;12.47;5.00;;;;;;;18.03;25.17;99456.20;2218505;80;20920;-83
2022/04/13 11:56:19;;;;;;;5.85;4.03;;;;;;;17.96;25.97;99454.50;2218634;80;20928;-81
2022/04/13 11:59:20;;;;;;;14.70;5.10;;;;;;;18.20;24.97;99463.53;2217965;80;20952;-82
2022/04/13 12:02:21;;;;;;;10.40;3.90;;;;;;;18.37;25.53;99462.95;2218186;80;20936;-83
2022/04/13 12:05:22;;;;;;;13.85;4.08;;;;;;;18.49;24.20;99450.06;2217677;80;21063;-83
2022/04/13 12:08:22;;;;;;;7.83;2.92;;;;;;;18.60;24.00;99453.91;2219997;80;21324;-82
2022/04/13 12:11:23;;;;;;;5.25;3.50;;;;;;;18.65;23.19;99458.74;2220043;80;20943;-83
2022/04/13 12:14:23;;;;;;;6.47;3.85;;;;;;;18.69;23.86;99449.44;2218554;80;21015;-82
2022/04/13 12:17:24;;;;;;;18.77;13.85;;;;;;;18.75;23.51;99455.98;2219073;80;21426;-84
2022/04/13 12:20:24;;;;;;;10.20;4.15;;;;;;;18.77;22.62;99447.58;2218320;80;20952;-83
2022/04/13 12:23:25;;;;;;;5.92;3.70;;;;;;;18.94;23.33;99453.98;2217718;80;21007;-82
2022/04/13 12:26:25;;;;;;;4.12;3.72;;;;;;;18.98;22.65;99441.15;2218073;80;21003;-83
2022/04/13 12:29:27;;;;;;;3.47;3.02;;;;;;;19.02;23.32;99434.05;2186497;80;20940;-81
2022/04/13 12:32:28;;;;;;;4.70;3.25;;;;;;;19.06;23.41;99422.53;2219066;80;20984;-82
2022/04/13 12:35:28;;;;;;;66.60;6.78;;;;;;;19.20;21.88;99429.87;2219083;80;20943;-84
2022/04/13 12:38:28;;;;;;;11.20;3.58;;;;;;;19.31;22.46;99443.83;2219282;80;20936;-83
2022/04/13 12:41:29;;;;;;;6.30;3.75;;;;;;;19.37;21.87;99444.19;2219872;80;20940;-84
2022/04/13 12:44:29;;;;;;;4.62;3.50;;;;;;;19.39;22.41;99431.81;2219969;80;21343;-84
2022/04/13 12:47:30;;;;;;;27.40;5.15;;;;;;;19.48;21.86;99436.09;2219176;80;21416;-85
2022/04/13 12:50:30;;;;;;;3.67;3.37;;;;;;;19.52;22.06;99441.77;2219564;80;20933;-85
2022/04/13 12:53:30;;;;;;;4.37;3.52;;;;;;;19.81;21.89;99432.08;2219726;80;20929;-84
2022/04/13 12:56:31;;;;;;;6.97;3.83;;;;;;;19.68;20.73;99427.43;2220320;80;21003;-85
2022/04/13 12:59:34;;;;;;;25.00;5.07;;;;;;;19.54;21.60;99425.00;2219382;80;20940;-82
2022/04/13 13:02:32;;;;;;;5.85;4.83;;;;;;;19.55;21.70;99419.25;2219351;80;20996;-83
2022/04/13 13:05:32;;;;;;;5.53;3.90;;;;;;;19.48;21.72;99423.73;2219131;80;21373;-84
2022/04/13 13:08:32;;;;;;;22.60;5.97;;;;;;;19.43;22.19;99418.95;2218567;80;21449;-82
2022/04/13 13:11:33;;;;;;;12.25;9.70;;;;;;;19.39;22.66;99425.19;2219191;80;20991;-85
2022/04/13 13:14:34;;;;;;;142.68;14.85;;;;;;;19.16;21.87;99423.31;2219037;80;21007;-82
2022/04/13 13:17:37;;;;;;;12.18;5.03;;;;;;;18.95;22.18;99424.44;2218993;80;20948;-80
2022/04/13 13:20:35;;;;;;;14.85;4.75;;;;;;;19.05;22.25;99429.59;2218782;80;20952;-83
2022/04/13 13:23:34;;;;;;;4.50;3.70;;;;;;;19.13;22.54;99423.36;2218415;80;21732;-83
2022/04/13 13:26:35;;;;;;;4.65;3.98;;;;;;;19.19;22.15;99429.44;2217221;80;21312;-83
2022/04/13 13:29:35;;;;;;;8.48;4.03;;;;;;;19.09;21.75;99423.40;2217331;80;21019;-83
2022/04/13 13:32:36;;;;;;;21.25;5.37;;;;;;;19.03;21.74;99422.57;2217638;80;20943;-81
2022/04/13 13:35:36;;;;;;;4.60;3.92;;;;;;;19.05;21.78;99418.14;2217900;80;20984;-82
2022/04/13 13:38:36;;;;;;;3.98;3.65;;;;;;;19.17;21.30;99413.16;2219562;80;20932;-84
2022/04/13 13:41:37;;;;;;;9.15;3.80;;;;;;;19.04;20.93;99411.09;2220787;80;20980;-83
2022/04/13 13:44:37;;;;;;;5.53;3.45;;;;;;;18.86;21.44;99408.23;2219893;80;20936;-82
2022/04/13 13:47:38;;;;;;;23.67;4.90;;;;;;;18.81;20.69;99406.55;2219443;80;21051;-80
2022/04/13 13:50:38;;;;;;;5.58;4.03;;;;;;;18.70;22.14;99406.68;2219260;80;20964;-78
2022/04/13 13:53:39;;;;;;;6.75;4.55;;;;;;;18.71;22.19;99398.73;2220091;80;20981;-84
2022/04/13 13:56:39;;;;;;;12.88;5.87;;;;;;;18.72;22.75;99399.60;2219960;80;20963;-82
2022/04/13 13:59:39;;;;;;;5.58;4.25;;;;;;;18.78;22.87;99393.79;2220056;80;20999;-80
2022/04/13 14:02:40;;;;;;;5.08;4.30;;;;;;;18.81;22.60;99395.52;2220996;80;20964;-81
2022/04/13 14:05:40;;;;;;;7.15;4.53;;;;;;;18.51;22.07;99398.50;2220556;80;20999;-81
2022/04/13 14:08:40;;;;;;;6.00;4.60;;;;;;;18.31;22.66;99390.34;2220888;80;20956;-82
2022/04/13 14:11:41;;;;;;;14.75;5.25;;;;;;;18.07;21.98;99395.84;2220911;80;20991;-82
2022/04/13 14:14:41;;;;;;;17.15;5.45;;;;;;;17.97;22.65;99400.78;2214986;80;20980;-81